sensor_id;sensor_type;location;lat;lon;timestamp;temperature;humidity
62589;DHT22;58504;48.770;9.148;2022-08-19T00:01:27;25.40;54.60
62589;DHT22;58504;48.770;9.148;2022-08-19T00:03:55;25.40;54.70
62589;DHT22;58504;48.770;9.148;2022-08-19T00:06:22;25.40;54.70
62589;DHT22;58504;48.770;9.148;2022-08-19T00:08:49;25.40;54.70
62589;DHT22;58504;48.770;9.148;2022-08-19T00:11:17;25.40;54.70
62589;DHT22;58504;48.770;9.148;2022-08-19T00:13:44;25.40;54.70
62589;DHT22;58504;48.770;9.148;2022-08-19T00:16:15;25.40;54.70
62589;DHT22;58504;48.770;9.148;2022-08-19T00:18:42;25.30;54.70
62589;DHT22;58504;48.770;9.148;2022-08-19T00:21:09;25.40;54.70
62589;DHT22;58504;48.770;9.148;2022-08-19T00:23:37;25.40;54.80
62589;DHT22;58504;48.770;9.148;2022-08-19T00:26:04;25.40;54.80
62589;DHT22;58504;48.770;9.148;2022-08-19T00:28:31;25.30;54.80
62589;DHT22;58504;48.770;9.148;2022-08-19T00:30:58;25.30;54.70
62589;DHT22;58504;48.770;9.148;2022-08-19T00:33:26;25.40;54.80
62589;DHT22;58504;48.770;9.148;2022-08-19T00:35:55;25.40;54.80
62589;DHT22;58504;48.770;9.148;2022-08-19T00:38:21;25.40;54.80
62589;DHT22;58504;48.770;9.148;2022-08-19T00:40:48;25.30;54.80
62589;DHT22;58504;48.770;9.148;2022-08-19T00:43:18;25.30;54.80
62589;DHT22;58504;48.770;9.148;2022-08-19T00:45:46;25.40;54.80
62589;DHT22;58504;48.770;9.148;2022-08-19T00:48:13;25.40;54.80
62589;DHT22;58504;48.770;9.148;2022-08-19T00:50:44;25.30;54.80
62589;DHT22;58504;48.770;9.148;2022-08-19T00:53:12;25.30;54.70
62589;DHT22;58504;48.770;9.148;2022-08-19T00:55:40;25.30;54.80
62589;DHT22;58504;48.770;9.148;2022-08-19T00:58:12;25.30;54.80
62589;DHT22;58504;48.770;9.148;2022-08-19T01:00:40;25.40;54.90
62589;DHT22;58504;48.770;9.148;2022-08-19T01:03:09;25.30;54.80
62589;DHT22;58504;48.770;9.148;2022-08-19T01:05:37;25.30;54.80
62589;DHT22;58504;48.770;9.148;2022-08-19T01:08:07;25.30;54.80
62589;DHT22;58504;48.770;9.148;2022-08-19T01:10:38;25.30;54.80
62589;DHT22;58504;48.770;9.148;2022-08-19T01:13:06;25.30;54.90
62589;DHT22;58504;48.770;9.148;2022-08-19T01:15:35;25.30;54.80
62589;DHT22;58504;48.770;9.148;2022-08-19T01:18:09;25.30;54.80
62589;DHT22;58504;48.770;9.148;2022-08-19T01:20:39;25.30;54.90
62589;DHT22;58504;48.770;9.148;2022-08-19T01:23:08;25.30;54.90
62589;DHT22;58504;48.770;9.148;2022-08-19T01:25:39;25.30;54.80
62589;DHT22;58504;48.770;9.148;2022-08-19T01:28:15;25.30;54.90
62589;DHT22;58504;48.770;9.148;2022-08-19T01:30:43;25.30;54.80
62589;DHT22;58504;48.770;9.148;2022-08-19T01:33:10;25.30;54.90
62589;DHT22;58504;48.770;9.148;2022-08-19T01:35:37;25.30;54.90
62589;DHT22;58504;48.770;9.148;2022-08-19T01:38:06;25.30;54.90
62589;DHT22;58504;48.770;9.148;2022-08-19T01:40:37;25.30;54.90
62589;DHT22;58504;48.770;9.148;2022-08-19T01:43:04;25.30;55.00
62589;DHT22;58504;48.770;9.148;2022-08-19T01:45:33;25.30;54.90
62589;DHT22;58504;48.770;9.148;2022-08-19T01:48:01;25.30;54.90
62589;DHT22;58504;48.770;9.148;2022-08-19T01:50:28;25.30;54.90
62589;DHT22;58504;48.770;9.148;2022-08-19T01:52:55;25.30;54.90
62589;DHT22;58504;48.770;9.148;2022-08-19T01:55:22;25.30;54.90
62589;DHT22;58504;48.770;9.148;2022-08-19T01:57:55;25.30;54.90
62589;DHT22;58504;48.770;9.148;2022-08-19T02:00:26;25.30;55.00
62589;DHT22;58504;48.770;9.148;2022-08-19T02:02:54;25.30;55.00
62589;DHT22;58504;48.770;9.148;2022-08-19T02:05:21;25.30;55.00
62589;DHT22;58504;48.770;9.148;2022-08-19T02:07:48;25.30;55.00
62589;DHT22;58504;48.770;9.148;2022-08-19T02:10:19;25.30;55.50
62589;DHT22;58504;48.770;9.148;2022-08-19T02:12:46;25.30;55.00
62589;DHT22;58504;48.770;9.148;2022-08-19T02:15:16;25.30;54.90
62589;DHT22;58504;48.770;9.148;2022-08-19T02:17:44;25.30;54.90
62589;DHT22;58504;48.770;9.148;2022-08-19T02:20:12;25.30;55.00
62589;DHT22;58504;48.770;9.148;2022-08-19T02:22:40;25.30;55.10
62589;DHT22;58504;48.770;9.148;2022-08-19T02:25:08;25.30;55.00
62589;DHT22;58504;48.770;9.148;2022-08-19T02:27:35;25.30;55.00
62589;DHT22;58504;48.770;9.148;2022-08-19T02:30:04;25.30;55.10
62589;DHT22;58504;48.770;9.148;2022-08-19T02:32:32;25.30;55.00
62589;DHT22;58504;48.770;9.148;2022-08-19T02:34:59;25.30;55.00
62589;DHT22;58504;48.770;9.148;2022-08-19T02:37:27;25.30;55.00
62589;DHT22;58504;48.770;9.148;2022-08-19T02:40:11;25.30;55.00
62589;DHT22;58504;48.770;9.148;2022-08-19T02:42:38;25.30;55.00
62589;DHT22;58504;48.770;9.148;2022-08-19T02:45:07;25.30;55.10
62589;DHT22;58504;48.770;9.148;2022-08-19T02:47:35;25.30;55.10
62589;DHT22;58504;48.770;9.148;2022-08-19T02:50:03;25.30;55.10
62589;DHT22;58504;48.770;9.148;2022-08-19T02:52:32;25.30;55.00
62589;DHT22;58504;48.770;9.148;2022-08-19T02:54:59;25.30;55.00
62589;DHT22;58504;48.770;9.148;2022-08-19T02:57:26;25.30;55.00
62589;DHT22;58504;48.770;9.148;2022-08-19T02:59:54;25.30;55.00
62589;DHT22;58504;48.770;9.148;2022-08-19T03:02:20;25.30;55.10
62589;DHT22;58504;48.770;9.148;2022-08-19T03:04:48;25.30;55.10
62589;DHT22;58504;48.770;9.148;2022-08-19T03:07:17;25.20;54.90
62589;DHT22;58504;48.770;9.148;2022-08-19T03:09:44;25.20;55.00
62589;DHT22;58504;48.770;9.148;2022-08-19T03:12:11;25.20;55.00
62589;DHT22;58504;48.770;9.148;2022-08-19T03:14:38;25.20;55.00
62589;DHT22;58504;48.770;9.148;2022-08-19T03:17:05;25.20;55.00
62589;DHT22;58504;48.770;9.148;2022-08-19T03:19:32;25.20;55.00
62589;DHT22;58504;48.770;9.148;2022-08-19T03:22:00;25.20;55.00
62589;DHT22;58504;48.770;9.148;2022-08-19T03:24:28;25.20;55.00
62589;DHT22;58504;48.770;9.148;2022-08-19T03:26:56;25.20;55.00
62589;DHT22;58504;48.770;9.148;2022-08-19T03:29:24;25.20;55.00
62589;DHT22;58504;48.770;9.148;2022-08-19T03:31:51;25.20;55.00
62589;DHT22;58504;48.770;9.148;2022-08-19T03:34:21;25.20;55.00
62589;DHT22;58504;48.770;9.148;2022-08-19T03:36:51;25.20;55.10
62589;DHT22;58504;48.770;9.148;2022-08-19T03:39:21;25.20;55.10
62589;DHT22;58504;48.770;9.148;2022-08-19T03:41:49;25.20;55.10
62589;DHT22;58504;48.770;9.148;2022-08-19T03:44:18;25.20;55.10
62589;DHT22;58504;48.770;9.148;2022-08-19T03:46:46;25.20;55.10
62589;DHT22;58504;48.770;9.148;2022-08-19T03:49:15;25.20;55.10
62589;DHT22;58504;48.770;9.148;2022-08-19T03:51:42;25.20;55.10
62589;DHT22;58504;48.770;9.148;2022-08-19T03:54:12;25.20;55.10
62589;DHT22;58504;48.770;9.148;2022-08-19T03:56:43;25.20;55.10
62589;DHT22;58504;48.770;9.148;2022-08-19T03:59:13;25.20;55.20
62589;DHT22;58504;48.770;9.148;2022-08-19T04:01:41;25.20;55.10
62589;DHT22;58504;48.770;9.148;2022-08-19T04:04:07;25.20;55.20
62589;DHT22;58504;48.770;9.148;2022-08-19T04:06:36;25.20;55.10
62589;DHT22;58504;48.770;9.148;2022-08-19T04:09:10;25.20;55.10
62589;DHT22;58504;48.770;9.148;2022-08-19T04:11:41;25.20;55.20
62589;DHT22;58504;48.770;9.148;2022-08-19T04:14:09;25.20;55.20
62589;DHT22;58504;48.770;9.148;2022-08-19T04:16:37;25.20;55.20
62589;DHT22;58504;48.770;9.148;2022-08-19T04:19:05;25.20;55.20
62589;DHT22;58504;48.770;9.148;2022-08-19T04:21:33;25.20;55.10
62589;DHT22;58504;48.770;9.148;2022-08-19T04:24:00;25.20;55.20
62589;DHT22;58504;48.770;9.148;2022-08-19T04:26:29;25.20;55.10
62589;DHT22;58504;48.770;9.148;2022-08-19T04:28:58;25.20;55.10
62589;DHT22;58504;48.770;9.148;2022-08-19T04:31:28;25.20;55.00
62589;DHT22;58504;48.770;9.148;2022-08-19T04:33:57;25.20;55.10
62589;DHT22;58504;48.770;9.148;2022-08-19T04:36:28;25.20;55.10
62589;DHT22;58504;48.770;9.148;2022-08-19T04:38:56;25.20;55.10
62589;DHT22;58504;48.770;9.148;2022-08-19T04:41:23;25.20;55.10
62589;DHT22;58504;48.770;9.148;2022-08-19T04:44:09;25.20;55.10
62589;DHT22;58504;48.770;9.148;2022-08-19T04:46:37;25.20;55.10
62589;DHT22;58504;48.770;9.148;2022-08-19T04:49:04;25.20;55.10
62589;DHT22;58504;48.770;9.148;2022-08-19T04:51:32;25.10;55.10
62589;DHT22;58504;48.770;9.148;2022-08-19T04:54:00;25.10;55.00
62589;DHT22;58504;48.770;9.148;2022-08-19T04:56:28;25.10;55.00
62589;DHT22;58504;48.770;9.148;2022-08-19T04:58:56;25.20;55.10
62589;DHT22;58504;48.770;9.148;2022-08-19T05:01:26;25.10;55.10
62589;DHT22;58504;48.770;9.148;2022-08-19T05:03:55;25.10;55.00
62589;DHT22;58504;48.770;9.148;2022-08-19T05:06:23;25.10;55.10
62589;DHT22;58504;48.770;9.148;2022-08-19T05:08:51;25.10;55.10
62589;DHT22;58504;48.770;9.148;2022-08-19T05:11:19;25.20;55.00
62589;DHT22;58504;48.770;9.148;2022-08-19T05:13:47;25.10;55.00
62589;DHT22;58504;48.770;9.148;2022-08-19T05:16:16;25.10;55.00
62589;DHT22;58504;48.770;9.148;2022-08-19T05:18:45;25.10;55.00
62589;DHT22;58504;48.770;9.148;2022-08-19T05:21:30;25.10;55.10
62589;DHT22;58504;48.770;9.148;2022-08-19T05:24:15;25.10;55.00
62589;DHT22;58504;48.770;9.148;2022-08-19T05:26:45;25.10;54.90
62589;DHT22;58504;48.770;9.148;2022-08-19T05:29:14;25.10;55.10
62589;DHT22;58504;48.770;9.148;2022-08-19T05:31:41;25.10;55.00
62589;DHT22;58504;48.770;9.148;2022-08-19T05:34:09;25.10;55.60
62589;DHT22;58504;48.770;9.148;2022-08-19T05:36:38;25.10;55.00
62589;DHT22;58504;48.770;9.148;2022-08-19T05:39:06;25.20;55.00
62589;DHT22;58504;48.770;9.148;2022-08-19T05:41:33;25.10;55.00
62589;DHT22;58504;48.770;9.148;2022-08-19T05:44:02;25.20;55.10
62589;DHT22;58504;48.770;9.148;2022-08-19T05:46:31;25.10;55.10
62589;DHT22;58504;48.770;9.148;2022-08-19T05:48:58;25.10;55.10
62589;DHT22;58504;48.770;9.148;2022-08-19T05:51:26;25.10;54.90
62589;DHT22;58504;48.770;9.148;2022-08-19T05:53:53;25.10;55.00
62589;DHT22;58504;48.770;9.148;2022-08-19T05:56:20;25.10;55.00
62589;DHT22;58504;48.770;9.148;2022-08-19T05:58:47;25.10;54.90
62589;DHT22;58504;48.770;9.148;2022-08-19T06:01:17;25.20;55.10
62589;DHT22;58504;48.770;9.148;2022-08-19T06:03:44;25.10;55.00
62589;DHT22;58504;48.770;9.148;2022-08-19T06:06:13;25.10;55.00
62589;DHT22;58504;48.770;9.148;2022-08-19T06:08:42;25.20;55.10
62589;DHT22;58504;48.770;9.148;2022-08-19T06:11:19;25.10;55.00
62589;DHT22;58504;48.770;9.148;2022-08-19T06:13:48;25.10;55.00
62589;DHT22;58504;48.770;9.148;2022-08-19T06:16:16;25.10;55.00
62589;DHT22;58504;48.770;9.148;2022-08-19T06:18:48;25.10;55.00
62589;DHT22;58504;48.770;9.148;2022-08-19T06:21:17;25.10;55.00
62589;DHT22;58504;48.770;9.148;2022-08-19T06:23:46;25.10;55.00
62589;DHT22;58504;48.770;9.148;2022-08-19T06:26:13;25.10;55.00
62589;DHT22;58504;48.770;9.148;2022-08-19T06:28:40;25.10;55.00
62589;DHT22;58504;48.770;9.148;2022-08-19T06:31:13;25.20;55.00
62589;DHT22;58504;48.770;9.148;2022-08-19T06:33:41;25.20;55.00
62589;DHT22;58504;48.770;9.148;2022-08-19T06:36:17;25.20;55.10
62589;DHT22;58504;48.770;9.148;2022-08-19T06:38:44;25.20;55.20
62589;DHT22;58504;48.770;9.148;2022-08-19T06:41:12;25.20;55.40
62589;DHT22;58504;48.770;9.148;2022-08-19T06:43:39;25.30;55.50
62589;DHT22;58504;48.770;9.148;2022-08-19T06:46:10;25.30;55.40
62589;DHT22;58504;48.770;9.148;2022-08-19T06:48:38;25.30;55.50
62589;DHT22;58504;48.770;9.148;2022-08-19T06:51:05;25.40;55.50
62589;DHT22;58504;48.770;9.148;2022-08-19T06:53:32;25.40;55.50
62589;DHT22;58504;48.770;9.148;2022-08-19T06:55:59;25.40;55.60
62589;DHT22;58504;48.770;9.148;2022-08-19T06:58:29;25.30;55.70
62589;DHT22;58504;48.770;9.148;2022-08-19T07:00:59;25.30;56.40
62589;DHT22;58504;48.770;9.148;2022-08-19T07:03:29;25.30;56.20
62589;DHT22;58504;48.770;9.148;2022-08-19T07:05:58;25.30;56.30
62589;DHT22;58504;48.770;9.148;2022-08-19T07:08:25;25.30;56.30
62589;DHT22;58504;48.770;9.148;2022-08-19T07:10:52;25.20;56.40
62589;DHT22;58504;48.770;9.148;2022-08-19T07:13:20;25.10;56.70
62589;DHT22;58504;48.770;9.148;2022-08-19T07:15:49;25.10;56.90
62589;DHT22;58504;48.770;9.148;2022-08-19T07:18:17;25.10;56.90
62589;DHT22;58504;48.770;9.148;2022-08-19T07:20:45;25.10;56.90
62589;DHT22;58504;48.770;9.148;2022-08-19T07:23:12;25.10;56.90
62589;DHT22;58504;48.770;9.148;2022-08-19T07:25:39;25.10;56.80
62589;DHT22;58504;48.770;9.148;2022-08-19T07:28:07;25.10;56.90
62589;DHT22;58504;48.770;9.148;2022-08-19T07:30:36;25.10;57.40
62589;DHT22;58504;48.770;9.148;2022-08-19T07:33:04;25.20;56.80
62589;DHT22;58504;48.770;9.148;2022-08-19T07:35:31;25.20;56.70
62589;DHT22;58504;48.770;9.148;2022-08-19T07:37:59;25.20;56.50
62589;DHT22;58504;48.770;9.148;2022-08-19T07:40:28;25.20;56.50
62589;DHT22;58504;48.770;9.148;2022-08-19T07:42:55;25.20;56.50
62589;DHT22;58504;48.770;9.148;2022-08-19T07:45:22;25.20;56.40
62589;DHT22;58504;48.770;9.148;2022-08-19T07:47:49;25.20;56.40
62589;DHT22;58504;48.770;9.148;2022-08-19T07:50:19;25.20;56.40
62589;DHT22;58504;48.770;9.148;2022-08-19T07:52:46;25.20;56.30
62589;DHT22;58504;48.770;9.148;2022-08-19T07:55:17;25.20;56.40
62589;DHT22;58504;48.770;9.148;2022-08-19T07:57:44;25.10;56.50
62589;DHT22;58504;48.770;9.148;2022-08-19T08:00:12;25.10;56.50
62589;DHT22;58504;48.770;9.148;2022-08-19T08:02:39;25.10;56.60
62589;DHT22;58504;48.770;9.148;2022-08-19T08:05:08;25.10;56.60
62589;DHT22;58504;48.770;9.148;2022-08-19T08:07:54;25.00;56.60
62589;DHT22;58504;48.770;9.148;2022-08-19T08:10:39;25.00;56.80
62589;DHT22;58504;48.770;9.148;2022-08-19T08:13:06;24.90;56.80
62589;DHT22;58504;48.770;9.148;2022-08-19T08:15:33;24.90;56.80
62589;DHT22;58504;48.770;9.148;2022-08-19T08:18:00;24.90;56.80
62589;DHT22;58504;48.770;9.148;2022-08-19T08:20:26;24.90;56.90
62589;DHT22;58504;48.770;9.148;2022-08-19T08:22:55;24.90;56.70
62589;DHT22;58504;48.770;9.148;2022-08-19T08:25:39;24.90;56.70
62589;DHT22;58504;48.770;9.148;2022-08-19T08:28:06;24.90;56.80
62589;DHT22;58504;48.770;9.148;2022-08-19T08:30:34;24.80;56.70
62589;DHT22;58504;48.770;9.148;2022-08-19T08:33:02;24.80;56.70
62589;DHT22;58504;48.770;9.148;2022-08-19T08:35:29;24.80;56.70
62589;DHT22;58504;48.770;9.148;2022-08-19T08:37:57;24.80;56.70
62589;DHT22;58504;48.770;9.148;2022-08-19T08:40:29;24.80;56.70
62589;DHT22;58504;48.770;9.148;2022-08-19T08:42:59;24.90;56.90
62589;DHT22;58504;48.770;9.148;2022-08-19T08:45:31;24.90;57.00
62589;DHT22;58504;48.770;9.148;2022-08-19T08:48:04;24.80;57.10
62589;DHT22;58504;48.770;9.148;2022-08-19T08:50:39;24.80;57.10
62589;DHT22;58504;48.770;9.148;2022-08-19T08:53:10;24.80;57.10
62589;DHT22;58504;48.770;9.148;2022-08-19T08:55:41;24.80;57.20
62589;DHT22;58504;48.770;9.148;2022-08-19T08:58:12;24.80;57.80
62589;DHT22;58504;48.770;9.148;2022-08-19T09:00:45;24.80;57.40
62589;DHT22;58504;48.770;9.148;2022-08-19T09:03:17;24.90;57.50
62589;DHT22;58504;48.770;9.148;2022-08-19T09:05:51;24.80;57.50
62589;DHT22;58504;48.770;9.148;2022-08-19T09:08:30;24.90;57.60
62589;DHT22;58504;48.770;9.148;2022-08-19T09:11:03;24.90;57.60
62589;DHT22;58504;48.770;9.148;2022-08-19T09:13:36;24.90;57.50
62589;DHT22;58504;48.770;9.148;2022-08-19T09:16:10;25.00;57.40
62589;DHT22;58504;48.770;9.148;2022-08-19T09:18:43;25.00;57.40
62589;DHT22;58504;48.770;9.148;2022-08-19T09:21:12;25.00;57.80
62589;DHT22;58504;48.770;9.148;2022-08-19T09:23:41;25.10;57.10
62589;DHT22;58504;48.770;9.148;2022-08-19T09:26:09;25.10;57.10
62589;DHT22;58504;48.770;9.148;2022-08-19T09:28:38;25.10;57.20
62589;DHT22;58504;48.770;9.148;2022-08-19T09:31:08;25.10;57.10
62589;DHT22;58504;48.770;9.148;2022-08-19T09:33:35;25.10;57.10
62589;DHT22;58504;48.770;9.148;2022-08-19T09:36:04;25.20;57.10
62589;DHT22;58504;48.770;9.148;2022-08-19T09:38:33;25.20;57.00
62589;DHT22;58504;48.770;9.148;2022-08-19T09:41:04;25.20;56.90
62589;DHT22;58504;48.770;9.148;2022-08-19T09:43:31;25.20;56.80
62589;DHT22;58504;48.770;9.148;2022-08-19T09:45:59;25.30;56.90
62589;DHT22;58504;48.770;9.148;2022-08-19T09:48:26;25.30;56.80
62589;DHT22;58504;48.770;9.148;2022-08-19T09:50:53;25.30;56.80
62589;DHT22;58504;48.770;9.148;2022-08-19T09:53:20;25.30;56.80
62589;DHT22;58504;48.770;9.148;2022-08-19T09:55:48;25.30;56.80
62589;DHT22;58504;48.770;9.148;2022-08-19T09:58:16;25.30;56.80
62589;DHT22;58504;48.770;9.148;2022-08-19T10:00:43;25.30;56.80
62589;DHT22;58504;48.770;9.148;2022-08-19T10:03:11;25.40;56.90
62589;DHT22;58504;48.770;9.148;2022-08-19T10:05:38;25.40;56.70
62589;DHT22;58504;48.770;9.148;2022-08-19T10:08:19;25.50;56.50
62589;DHT22;58504;48.770;9.148;2022-08-19T10:10:47;25.50;56.30
62589;DHT22;58504;48.770;9.148;2022-08-19T10:13:17;25.50;56.20
62589;DHT22;58504;48.770;9.148;2022-08-19T10:15:47;25.60;56.30
62589;DHT22;58504;48.770;9.148;2022-08-19T10:18:17;25.60;56.50
62589;DHT22;58504;48.770;9.148;2022-08-19T10:20:44;25.70;56.40
62589;DHT22;58504;48.770;9.148;2022-08-19T10:23:11;25.60;56.20
62589;DHT22;58504;48.770;9.148;2022-08-19T10:25:39;25.60;56.30
62589;DHT22;58504;48.770;9.148;2022-08-19T10:28:06;25.60;56.30
62589;DHT22;58504;48.770;9.148;2022-08-19T10:30:35;25.60;56.30
62589;DHT22;58504;48.770;9.148;2022-08-19T10:33:02;25.60;56.20
62589;DHT22;58504;48.770;9.148;2022-08-19T10:35:29;25.60;56.10
62589;DHT22;58504;48.770;9.148;2022-08-19T10:37:56;25.60;56.10
62589;DHT22;58504;48.770;9.148;2022-08-19T10:40:25;25.60;55.90
62589;DHT22;58504;48.770;9.148;2022-08-19T10:42:52;25.60;55.80
62589;DHT22;58504;48.770;9.148;2022-08-19T10:45:18;25.60;55.80
62589;DHT22;58504;48.770;9.148;2022-08-19T10:47:49;25.60;55.70
62589;DHT22;58504;48.770;9.148;2022-08-19T10:50:15;25.60;55.60
62589;DHT22;58504;48.770;9.148;2022-08-19T10:53:03;25.60;55.60
62589;DHT22;58504;48.770;9.148;2022-08-19T10:55:31;25.60;55.50
62589;DHT22;58504;48.770;9.148;2022-08-19T10:58:17;25.60;55.40
62589;DHT22;58504;48.770;9.148;2022-08-19T11:00:51;25.60;55.30
62589;DHT22;58504;48.770;9.148;2022-08-19T11:03:20;25.60;55.30
62589;DHT22;58504;48.770;9.148;2022-08-19T11:05:46;25.60;55.20
62589;DHT22;58504;48.770;9.148;2022-08-19T11:08:14;25.60;55.20
62589;DHT22;58504;48.770;9.148;2022-08-19T11:10:41;25.60;55.20
62589;DHT22;58504;48.770;9.148;2022-08-19T11:13:09;25.60;55.20
62589;DHT22;58504;48.770;9.148;2022-08-19T11:15:36;25.60;55.20
62589;DHT22;58504;48.770;9.148;2022-08-19T11:18:03;25.60;55.20
62589;DHT22;58504;48.770;9.148;2022-08-19T11:20:32;25.60;55.80
62589;DHT22;58504;48.770;9.148;2022-08-19T11:22:59;25.60;55.10
62589;DHT22;58504;48.770;9.148;2022-08-19T11:25:25;25.60;55.10
62589;DHT22;58504;48.770;9.148;2022-08-19T11:27:53;25.60;55.10
62589;DHT22;58504;48.770;9.148;2022-08-19T11:30:21;25.60;55.00
62589;DHT22;58504;48.770;9.148;2022-08-19T11:32:47;25.60;55.00
62589;DHT22;58504;48.770;9.148;2022-08-19T11:35:15;25.70;55.00
62589;DHT22;58504;48.770;9.148;2022-08-19T11:37:43;25.70;55.00
62589;DHT22;58504;48.770;9.148;2022-08-19T11:40:11;25.70;54.90
62589;DHT22;58504;48.770;9.148;2022-08-19T11:42:38;25.70;54.90
62589;DHT22;58504;48.770;9.148;2022-08-19T11:45:18;25.70;54.90
62589;DHT22;58504;48.770;9.148;2022-08-19T11:47:45;25.70;54.80
62589;DHT22;58504;48.770;9.148;2022-08-19T11:50:12;25.70;54.80
62589;DHT22;58504;48.770;9.148;2022-08-19T11:52:40;25.70;54.80
62589;DHT22;58504;48.770;9.148;2022-08-19T11:55:09;25.70;54.80
62589;DHT22;58504;48.770;9.148;2022-08-19T11:57:35;25.70;54.80
62589;DHT22;58504;48.770;9.148;2022-08-19T12:00:04;25.70;55.00
62589;DHT22;58504;48.770;9.148;2022-08-19T12:02:31;25.80;55.10
62589;DHT22;58504;48.770;9.148;2022-08-19T12:04:58;25.80;55.00
62589;DHT22;58504;48.770;9.148;2022-08-19T12:07:28;25.80;54.90
62589;DHT22;58504;48.770;9.148;2022-08-19T12:09:57;25.80;54.80
62589;DHT22;58504;48.770;9.148;2022-08-19T12:12:26;25.80;54.80
62589;DHT22;58504;48.770;9.148;2022-08-19T12:14:52;25.80;54.80
62589;DHT22;58504;48.770;9.148;2022-08-19T12:17:22;25.70;54.80
62589;DHT22;58504;48.770;9.148;2022-08-19T12:19:49;25.80;54.80
62589;DHT22;58504;48.770;9.148;2022-08-19T12:22:16;25.80;54.90
62589;DHT22;58504;48.770;9.148;2022-08-19T12:24:43;25.80;55.00
62589;DHT22;58504;48.770;9.148;2022-08-19T12:27:10;25.80;55.00
62589;DHT22;58504;48.770;9.148;2022-08-19T12:29:38;25.70;54.90
62589;DHT22;58504;48.770;9.148;2022-08-19T12:32:06;25.80;55.00
62589;DHT22;58504;48.770;9.148;2022-08-19T12:34:34;25.80;54.90
62589;DHT22;58504;48.770;9.148;2022-08-19T12:37:04;25.80;54.90
62589;DHT22;58504;48.770;9.148;2022-08-19T12:39:34;25.70;54.80
62589;DHT22;58504;48.770;9.148;2022-08-19T12:42:01;25.70;54.80
62589;DHT22;58504;48.770;9.148;2022-08-19T12:44:28;25.70;54.80
62589;DHT22;58504;48.770;9.148;2022-08-19T12:46:57;25.70;54.90
62589;DHT22;58504;48.770;9.148;2022-08-19T12:49:24;25.70;54.90
62589;DHT22;58504;48.770;9.148;2022-08-19T12:51:51;25.70;54.90
62589;DHT22;58504;48.770;9.148;2022-08-19T12:54:18;25.70;54.90
62589;DHT22;58504;48.770;9.148;2022-08-19T12:56:45;25.70;54.90
62589;DHT22;58504;48.770;9.148;2022-08-19T12:59:13;25.70;54.80
62589;DHT22;58504;48.770;9.148;2022-08-19T13:01:43;25.70;54.80
62589;DHT22;58504;48.770;9.148;2022-08-19T13:04:11;25.70;54.80
62589;DHT22;58504;48.770;9.148;2022-08-19T13:06:38;25.70;54.80
62589;DHT22;58504;48.770;9.148;2022-08-19T13:09:05;25.70;54.70
62589;DHT22;58504;48.770;9.148;2022-08-19T13:11:32;25.80;54.70
62589;DHT22;58504;48.770;9.148;2022-08-19T13:13:59;25.80;54.70
62589;DHT22;58504;48.770;9.148;2022-08-19T13:16:26;25.80;54.70
62589;DHT22;58504;48.770;9.148;2022-08-19T13:18:54;25.80;54.70
62589;DHT22;58504;48.770;9.148;2022-08-19T13:21:26;25.80;54.70
62589;DHT22;58504;48.770;9.148;2022-08-19T13:23:55;25.80;54.70
62589;DHT22;58504;48.770;9.148;2022-08-19T13:26:22;25.70;54.70
62589;DHT22;58504;48.770;9.148;2022-08-19T13:28:49;25.70;54.70
62589;DHT22;58504;48.770;9.148;2022-08-19T13:31:38;25.70;54.70
62589;DHT22;58504;48.770;9.148;2022-08-19T13:34:27;25.70;54.70
62589;DHT22;58504;48.770;9.148;2022-08-19T13:36:56;25.70;54.80
62589;DHT22;58504;48.770;9.148;2022-08-19T13:39:23;25.70;54.80
62589;DHT22;58504;48.770;9.148;2022-08-19T13:41:50;25.70;54.90
62589;DHT22;58504;48.770;9.148;2022-08-19T13:44:18;25.70;54.80
62589;DHT22;58504;48.770;9.148;2022-08-19T13:46:45;25.70;54.90
62589;DHT22;58504;48.770;9.148;2022-08-19T13:49:13;25.70;54.90
62589;DHT22;58504;48.770;9.148;2022-08-19T13:51:40;25.70;54.90
62589;DHT22;58504;48.770;9.148;2022-08-19T13:54:09;25.70;54.90
62589;DHT22;58504;48.770;9.148;2022-08-19T13:56:41;25.70;54.90
62589;DHT22;58504;48.770;9.148;2022-08-19T13:59:08;25.70;54.90
62589;DHT22;58504;48.770;9.148;2022-08-19T14:01:35;25.70;55.00
62589;DHT22;58504;48.770;9.148;2022-08-19T14:04:02;25.70;55.10
62589;DHT22;58504;48.770;9.148;2022-08-19T14:06:29;25.70;55.20
62589;DHT22;58504;48.770;9.148;2022-08-19T14:08:56;25.80;55.20
62589;DHT22;58504;48.770;9.148;2022-08-19T14:11:24;25.80;55.20
62589;DHT22;58504;48.770;9.148;2022-08-19T14:13:51;25.90;55.20
62589;DHT22;58504;48.770;9.148;2022-08-19T14:16:18;25.90;55.10
62589;DHT22;58504;48.770;9.148;2022-08-19T14:18:45;25.90;55.10
62589;DHT22;58504;48.770;9.148;2022-08-19T14:21:15;25.90;55.00
62589;DHT22;58504;48.770;9.148;2022-08-19T14:23:43;26.00;54.90
62589;DHT22;58504;48.770;9.148;2022-08-19T14:26:13;26.00;54.80
62589;DHT22;58504;48.770;9.148;2022-08-19T14:28:42;26.10;54.70
62589;DHT22;58504;48.770;9.148;2022-08-19T14:31:09;26.10;54.60
62589;DHT22;58504;48.770;9.148;2022-08-19T14:33:36;26.20;54.50
62589;DHT22;58504;48.770;9.148;2022-08-19T14:36:04;26.30;54.30
62589;DHT22;58504;48.770;9.148;2022-08-19T14:38:31;26.30;54.10
62589;DHT22;58504;48.770;9.148;2022-08-19T14:41:09;26.40;53.90
62589;DHT22;58504;48.770;9.148;2022-08-19T14:43:37;26.40;53.70
62589;DHT22;58504;48.770;9.148;2022-08-19T14:46:06;26.50;53.70
62589;DHT22;58504;48.770;9.148;2022-08-19T14:48:33;26.50;53.50
62589;DHT22;58504;48.770;9.148;2022-08-19T14:51:01;26.50;53.30
62589;DHT22;58504;48.770;9.148;2022-08-19T14:53:28;26.60;53.90
62589;DHT22;58504;48.770;9.148;2022-08-19T14:55:55;26.60;53.30
62589;DHT22;58504;48.770;9.148;2022-08-19T14:58:22;26.60;53.20
62589;DHT22;58504;48.770;9.148;2022-08-19T15:00:49;26.50;53.60
62589;DHT22;58504;48.770;9.148;2022-08-19T15:03:17;26.50;53.50
62589;DHT22;58504;48.770;9.148;2022-08-19T15:05:44;26.50;53.50
62589;DHT22;58504;48.770;9.148;2022-08-19T15:08:11;26.40;53.60
62589;DHT22;58504;48.770;9.148;2022-08-19T15:10:38;26.30;53.30
62589;DHT22;58504;48.770;9.148;2022-08-19T15:13:05;26.30;54.00
62589;DHT22;58504;48.770;9.148;2022-08-19T15:15:32;26.20;53.50
62589;DHT22;58504;48.770;9.148;2022-08-19T15:18:00;26.20;53.60
62589;DHT22;58504;48.770;9.148;2022-08-19T15:20:29;26.20;53.60
62589;DHT22;58504;48.770;9.148;2022-08-19T15:22:56;26.20;53.70
62589;DHT22;58504;48.770;9.148;2022-08-19T15:25:24;26.20;53.80
62589;DHT22;58504;48.770;9.148;2022-08-19T15:27:52;26.20;53.80
62589;DHT22;58504;48.770;9.148;2022-08-19T15:30:21;26.20;53.80
62589;DHT22;58504;48.770;9.148;2022-08-19T15:32:49;26.10;53.70
62589;DHT22;58504;48.770;9.148;2022-08-19T15:35:18;26.20;53.80
62589;DHT22;58504;48.770;9.148;2022-08-19T15:37:48;26.10;53.70
62589;DHT22;58504;48.770;9.148;2022-08-19T15:40:15;26.10;53.70